This is the latest recevied weather packets stored in our database for station/object SV3CQY. If no packets are shown the sender has not sent any weather packets the latest 10 day(s).
| Time | Temp. | Humidity | Pressure | Rain* | Wind** | Luminosity | Snow |
|---|---|---|---|---|---|---|---|
| 1777543810 | 27.22° C | 24% | 1013.5 hPa | 0 mm | - | - | - |
| 1777542911 | 27.78° C | 24% | 1013.7 hPa | 0 mm | - | - | - |
| 1777542010 | 26.11° C | 30% | 1013.8 hPa | 0 mm | - | - | - |
| 1777539628 | 23.89° C | 38% | 1014 hPa | 0 mm | - | - | - |
| 1777538408 | 23.33° C | 38% | 1014.2 hPa | 0 mm | - | - | - |
| 1777537828 | 23.33° C | 41% | 1014.2 hPa | 0 mm | - | - | - |
| 1777537511 | 22.78° C | 45% | 1014.2 hPa | 0 mm | - | - | - |
| 1777535408 | 20° C | 66% | 1014.7 hPa | 0 mm | - | - | - |
| 1777534814 | 20.56° C | 63% | 1014.7 hPa | 0 mm | - | - | - |
| 1777533609 | 18.33° C | 70% | 1014.7 hPa | 0 mm | - | - | - |
| 1777529729 | 17.22° C | 66% | 1015.1 hPa | 0 mm | - | - | - |
| 1777529415 | 17.22° C | 66% | 1015.1 hPa | 0 mm | - | - | - |
| 1777527029 | 16.67° C | 64% | 1015.2 hPa | 0 mm | - | - | - |
| 1777524911 | 15.56° C | 67% | 1015.2 hPa | 0 mm | - | - | - |
| 1777521912 | 15° C | 72% | 1015.1 hPa | 0 mm | - | - | - |
| 1777520412 | 14.44° C | 76% | 1015 hPa | 0 mm | - | - | - |
| 1777518928 | 14.44° C | 77% | 1014.9 hPa | 0 mm | - | - | - |
| 1777518615 | 13.89° C | 76% | 1015 hPa | 0 mm | - | - | - |
| 1777515009 | 15.56° C | 73% | 1015 hPa | 0 mm | - | - | - |
| 1777513812 | 15.56° C | 72% | 1015.1 hPa | 0 mm | - | - | - |
| 1777513529 | 15° C | 73% | 1015.1 hPa | 0 mm | - | - | - |
| 1777512910 | 15° C | 73% | 1015.1 hPa | 0 mm | - | - | - |
| 1777512628 | 15° C | 72% | 1015.1 hPa | 0 mm | - | - | - |
| 1777512311 | 15° C | 73% | 1015.1 hPa | 0 mm | - | - | - |
| 1777507810 | 13.33° C | 71% | 1015.4 hPa | 0 mm | - | - | - |
* Rain latest hour (hover to see other rain measurements)
** Current wind speed in m/s (hover to see current wind gust speed)